createdAt,value
2023-02-24T00:00:54.162Z,0
2023-02-24T00:03:00.370Z,0
2023-02-24T00:04:03.561Z,0
2023-02-24T00:06:08.831Z,0
2023-02-24T00:08:14.483Z,0
2023-02-24T00:09:17.873Z,0
2023-02-24T00:10:21.592Z,0
2023-02-24T00:11:25.105Z,0
2023-02-24T00:13:31.663Z,0
2023-02-24T00:14:34.813Z,0
2023-02-24T00:16:42.756Z,0
2023-02-24T00:18:49.650Z,0
2023-02-24T00:20:55.421Z,0
2023-02-24T00:21:59.138Z,0
2023-02-24T00:24:05.439Z,0
2023-02-24T00:26:11.402Z,0
2023-02-24T00:28:17.909Z,0
2023-02-24T00:29:21.690Z,0
2023-02-24T00:31:29.205Z,0
2023-02-24T00:33:37.413Z,0
2023-02-24T00:35:41.826Z,0
2023-02-24T00:36:45.123Z,0
2023-02-24T00:38:51.847Z,0
2023-02-24T00:40:57.937Z,0
2023-02-24T00:43:04.169Z,0
2023-02-24T00:44:07.274Z,0
2023-02-24T00:46:14.598Z,0
2023-02-24T00:48:21.885Z,0
2023-02-24T00:50:28.685Z,0
2023-02-24T00:51:32.045Z,0
2023-02-24T00:53:38.342Z,0
2023-02-24T00:55:43.224Z,0
2023-02-24T00:56:46.034Z,0
2023-02-24T00:57:49.461Z,0
2023-02-24T00:58:52.263Z,0
2023-02-24T01:00:59.900Z,0
2023-02-24T01:03:06.103Z,0
2023-02-24T01:04:09.560Z,0
2023-02-24T01:06:16.421Z,0
2023-02-24T01:08:22.530Z,0
2023-02-24T01:10:28.366Z,0
2023-02-24T01:11:32.083Z,0
2023-02-24T01:13:38.228Z,0
2023-02-24T01:15:45.297Z,0
2023-02-24T01:17:52.584Z,0
2023-02-24T01:18:56.327Z,0
2023-02-24T01:21:03.210Z,0
2023-02-24T01:23:09.458Z,0
2023-02-24T01:25:14.578Z,0
2023-02-24T01:26:18.205Z,0
2023-02-24T01:28:23.849Z,0
2023-02-24T01:30:30.572Z,0
2023-02-24T01:32:40.306Z,0
2023-02-24T01:33:43.764Z,0
2023-02-24T01:35:49.535Z,0
2023-02-24T01:37:56.075Z,0
2023-02-24T01:40:01.646Z,0
2023-02-24T01:41:04.631Z,0
2023-02-24T01:43:10.485Z,0
2023-02-24T01:45:16.390Z,0
2023-02-24T01:46:19.702Z,0
2023-02-24T01:47:23.704Z,0
2023-02-24T01:48:27.666Z,0
2023-02-24T01:50:34.770Z,0
2023-02-24T01:51:38.437Z,0
2023-02-24T01:53:43.920Z,0
2023-02-24T01:55:50.470Z,0
2023-02-24T01:56:52.914Z,0
2023-02-24T01:57:56.272Z,0
2023-02-24T01:58:59.327Z,0
2023-02-24T02:01:04.743Z,0
2023-02-24T02:02:09.705Z,0
2023-02-24T02:03:13.671Z,0
2023-02-24T02:04:17.456Z,0
2023-02-24T02:06:24.168Z,0
2023-02-24T02:07:27.038Z,0
2023-02-24T02:08:29.308Z,0
2023-02-24T02:09:32.581Z,0
2023-02-24T02:11:38.760Z,0
2023-02-24T02:13:45.105Z,0
2023-02-24T02:14:48.579Z,0
2023-02-24T02:16:55.722Z,0
2023-02-24T02:19:02.864Z,0
2023-02-24T02:20:06.092Z,0
2023-02-24T02:22:11.988Z,0
2023-02-24T02:24:18.154Z,0
2023-02-24T02:25:21.287Z,0
2023-02-24T02:27:27.073Z,0
2023-02-24T02:28:29.791Z,0
2023-02-24T02:30:36.602Z,0
2023-02-24T02:32:45.189Z,0
2023-02-24T02:33:49.299Z,0
2023-02-24T02:35:56.967Z,0
2023-02-24T02:38:03.688Z,0
2023-02-24T02:39:06.746Z,0
2023-02-24T02:41:14.081Z,0
2023-02-24T02:42:17.702Z,0
2023-02-24T02:44:24.005Z,0
2023-02-24T02:46:30.458Z,0
2023-02-24T02:47:34.201Z,0
2023-02-24T02:49:40.576Z,0
2023-02-24T02:50:43.904Z,0
2023-02-24T02:52:50.474Z,0
2023-02-24T02:54:55.536Z,0
2023-02-24T02:55:59.295Z,0
2023-02-24T02:58:06.631Z,0
2023-02-24T03:00:12.225Z,0
2023-02-24T03:02:19.537Z,0
2023-02-24T03:03:23.215Z,0
2023-02-24T03:05:29.753Z,0
2023-02-24T03:07:36.478Z,0
2023-02-24T03:08:40.126Z,0
2023-02-24T03:10:46.433Z,0
2023-02-24T03:12:53.662Z,0
2023-02-24T03:13:56.488Z,0
2023-02-24T03:16:02.341Z,0
2023-02-24T03:18:07.930Z,0
2023-02-24T03:20:14.222Z,0
2023-02-24T03:21:17.149Z,0
2023-02-24T03:23:24.723Z,0
2023-02-24T03:25:30.730Z,0
2023-02-24T03:26:33.926Z,0
2023-02-24T03:27:36.987Z,0
2023-02-24T03:28:40.174Z,0
2023-02-24T03:30:45.578Z,0
2023-02-24T03:31:49.884Z,0
2023-02-24T03:33:56.773Z,0
2023-02-24T03:36:03.516Z,0
2023-02-24T03:37:06.615Z,0
2023-02-24T03:38:10.161Z,0
2023-02-24T03:39:14.500Z,0
2023-02-24T03:41:23.379Z,0
2023-02-24T03:42:25.711Z,0
2023-02-24T03:43:29.058Z,0
2023-02-24T03:44:31.849Z,0
2023-02-24T03:46:38.970Z,0
2023-02-24T03:47:42.056Z,0
2023-02-24T03:48:45.484Z,0
2023-02-24T03:49:48.352Z,0
2023-02-24T03:51:54.947Z,0
2023-02-24T03:52:58.299Z,0
2023-02-24T03:55:05.453Z,0
2023-02-24T03:57:11.573Z,0
2023-02-24T03:58:14.980Z,0
2023-02-24T04:00:20.803Z,0
2023-02-24T04:01:25.288Z,0
2023-02-24T04:03:31.896Z,0
2023-02-24T04:05:38.245Z,0
2023-02-24T04:06:41.606Z,0
2023-02-24T04:08:48.112Z,0
2023-02-24T04:09:51.005Z,0
2023-02-24T04:10:55.275Z,0
2023-02-24T04:11:58.347Z,0
2023-02-24T04:13:02.046Z,0
2023-02-24T04:15:07.217Z,0
2023-02-24T04:17:13.809Z,0
2023-02-24T04:19:20.071Z,0
2023-02-24T04:20:23.947Z,0
2023-02-24T04:22:29.946Z,0
2023-02-24T04:24:36.284Z,0
2023-02-24T04:25:39.402Z,0
2023-02-24T04:27:46.518Z,0
2023-02-24T04:29:52.773Z,0
2023-02-24T04:32:01.556Z,0
2023-02-24T04:33:03.870Z,0
2023-02-24T04:35:10.190Z,0
2023-02-24T04:37:16.005Z,0
2023-02-24T04:39:21.750Z,0
2023-02-24T04:40:24.602Z,0
2023-02-24T04:42:31.158Z,0
2023-02-24T04:44:37.788Z,0
2023-02-24T04:46:43.945Z,0
2023-02-24T04:47:46.477Z,0
2023-02-24T04:49:52.444Z,0
2023-02-24T04:51:57.317Z,0
2023-02-24T04:53:00.411Z,0
2023-02-24T04:54:03.702Z,0
2023-02-24T04:55:07.707Z,0
2023-02-24T04:57:14.458Z,0
2023-02-24T04:59:21.409Z,0
2023-02-24T05:00:25.107Z,0
2023-02-24T05:01:28.094Z,0
2023-02-24T05:02:31.227Z,0
2023-02-24T05:04:37.491Z,0
2023-02-24T05:05:40.692Z,0
2023-02-24T05:07:46.484Z,0
2023-02-24T05:09:52.949Z,0
2023-02-24T05:11:58.841Z,0
2023-02-24T05:13:04.422Z,0
2023-02-24T05:15:11.128Z,0
2023-02-24T05:17:18.063Z,0
2023-02-24T05:19:24.560Z,0
2023-02-24T05:20:28.154Z,0
2023-02-24T05:22:35.097Z,0
2023-02-24T05:24:40.718Z,0
2023-02-24T05:26:46.198Z,0
2023-02-24T05:27:49.562Z,0
2023-02-24T05:29:57.945Z,0
2023-02-24T05:32:06.156Z,0
2023-02-24T05:34:12.264Z,0
2023-02-24T05:35:14.970Z,0
2023-02-24T05:37:20.977Z,0
2023-02-24T05:39:27.134Z,0
2023-02-24T05:41:33.661Z,0
2023-02-24T05:42:36.449Z,0
2023-02-24T05:44:43.353Z,0
2023-02-24T05:46:50.926Z,0
2023-02-24T05:48:57.275Z,0
2023-02-24T05:50:01.089Z,0
2023-02-24T05:52:11.294Z,0
2023-02-24T05:54:17.406Z,0
2023-02-24T05:56:23.344Z,0
2023-02-24T05:57:25.852Z,0
2023-02-24T05:59:32.097Z,0
2023-02-24T06:01:39.831Z,0
2023-02-24T06:03:46.764Z,0
2023-02-24T06:04:50.012Z,0
2023-02-24T06:05:52.991Z,0
2023-02-24T06:06:55.427Z,0
2023-02-24T06:09:00.697Z,0
2023-02-24T06:11:07.276Z,1
2023-02-24T06:12:11.118Z,1
2023-02-24T06:14:17.775Z,2
2023-02-24T06:16:24.605Z,2
2023-02-24T06:18:31.956Z,1
2023-02-24T06:19:34.936Z,2
2023-02-24T06:21:42.285Z,2
2023-02-24T06:23:47.898Z,2
2023-02-24T06:25:54.110Z,2
2023-02-24T06:26:57.744Z,3
2023-02-24T06:29:03.637Z,2
2023-02-24T06:31:09.297Z,2
2023-02-24T06:33:17.532Z,3
2023-02-24T06:34:21.158Z,3
2023-02-24T06:36:26.788Z,2
2023-02-24T06:38:33.549Z,3
2023-02-24T06:40:42.177Z,4
2023-02-24T06:41:45.648Z,5
2023-02-24T06:43:52.272Z,6
2023-02-24T06:45:59.703Z,7
2023-02-24T06:48:04.893Z,7
2023-02-24T06:49:08.670Z,7
2023-02-24T06:51:16.567Z,7
2023-02-24T06:53:23.844Z,6
2023-02-24T06:55:29.681Z,7
2023-02-24T06:56:34.613Z,7
2023-02-24T06:58:40.156Z,7
2023-02-24T07:00:46.688Z,7
2023-02-24T07:02:53.353Z,8
2023-02-24T07:03:57.096Z,9
2023-02-24T07:06:03.772Z,8
2023-02-24T07:08:09.460Z,8
2023-02-24T07:10:15.306Z,8
2023-02-24T07:11:18.677Z,7
2023-02-24T07:13:25.645Z,7
2023-02-24T07:15:31.587Z,9
2023-02-24T07:16:34.973Z,9
2023-02-24T07:17:38.646Z,9
2023-02-24T07:18:41.827Z,10
2023-02-24T07:20:49.417Z,12
2023-02-24T07:21:52.842Z,13
2023-02-24T07:22:55.368Z,13
2023-02-24T07:24:01.376Z,13
2023-02-24T07:26:08.162Z,14
2023-02-24T07:27:11.910Z,14
2023-02-24T07:28:15.267Z,16
2023-02-24T07:29:18.623Z,16
2023-02-24T07:31:27.780Z,15
2023-02-24T07:33:33.758Z,14
2023-02-24T07:34:37.540Z,13
2023-02-24T07:36:46.941Z,13
2023-02-24T07:38:53.112Z,15
2023-02-24T07:40:59.300Z,14
2023-02-24T07:42:02.473Z,16
2023-02-24T07:44:07.999Z,14
2023-02-24T07:46:14.754Z,13
2023-02-24T07:48:21.243Z,14
2023-02-24T07:49:24.265Z,13
2023-02-24T07:51:31.023Z,13
2023-02-24T07:53:38.489Z,13
2023-02-24T07:55:44.165Z,12
2023-02-24T07:56:47.299Z,13
2023-02-24T07:58:54.041Z,13
2023-02-24T08:00:59.798Z,15
2023-02-24T08:03:06.647Z,14
2023-02-24T08:04:09.801Z,15
2023-02-24T08:06:16.080Z,15
2023-02-24T08:08:23.269Z,16
2023-02-24T08:09:26.925Z,16
2023-02-24T08:10:30.412Z,16
2023-02-24T08:11:33.747Z,16
2023-02-24T08:13:40.773Z,15
2023-02-24T08:14:43.900Z,16
2023-02-24T08:15:47.614Z,17
2023-02-24T08:16:50.982Z,17
2023-02-24T08:18:58.204Z,17
2023-02-24T08:21:05.160Z,17
2023-02-24T08:22:08.603Z,17
2023-02-24T08:24:16.164Z,19
2023-02-24T08:26:23.810Z,17
2023-02-24T08:28:30.962Z,18
2023-02-24T08:29:33.829Z,20
2023-02-24T08:31:41.924Z,18
2023-02-24T08:33:49.127Z,18
2023-02-24T08:35:55.655Z,18
2023-02-24T08:36:59.047Z,18
2023-02-24T08:39:05.417Z,21
2023-02-24T08:41:12.437Z,22
2023-02-24T08:43:18.565Z,21
2023-02-24T08:44:21.149Z,23
2023-02-24T08:46:27.710Z,23
2023-02-24T08:48:34.629Z,22
2023-02-24T08:50:40.878Z,21
2023-02-24T08:51:44.308Z,22
2023-02-24T08:53:49.538Z,22
2023-02-24T08:55:56.764Z,23
2023-02-24T08:58:03.785Z,25
2023-02-24T08:59:08.000Z,23
2023-02-24T09:01:14.875Z,20
2023-02-24T09:03:22.336Z,23
2023-02-24T09:05:30.087Z,23
2023-02-24T09:06:33.350Z,22
2023-02-24T09:08:40.652Z,22
2023-02-24T09:10:48.193Z,24
2023-02-24T09:11:51.721Z,24
2023-02-24T09:12:55.481Z,23
2023-02-24T09:13:58.634Z,21
2023-02-24T09:16:06.684Z,23
2023-02-24T09:18:12.487Z,27
2023-02-24T09:19:14.941Z,27
2023-02-24T09:21:24.342Z,30
2023-02-24T09:23:29.397Z,30
2023-02-24T09:25:35.909Z,29
2023-02-24T09:26:38.724Z,32
2023-02-24T09:27:42.516Z,26
2023-02-24T09:28:46.884Z,24
2023-02-24T09:30:54.628Z,25
2023-02-24T09:33:03.673Z,24
2023-02-24T09:34:07.584Z,35
2023-02-24T09:36:13.867Z,38
2023-02-24T09:38:20.122Z,39
2023-02-24T09:40:27.579Z,37
2023-02-24T09:41:33.241Z,34
2023-02-24T09:42:39.307Z,43
2023-02-24T09:43:43.061Z,49
2023-02-24T09:45:50.374Z,36
2023-02-24T09:47:59.080Z,41
2023-02-24T09:49:02.472Z,56
2023-02-24T09:51:09.162Z,49
2023-02-24T09:53:16.539Z,53
2023-02-24T09:55:23.681Z,37
2023-02-24T09:56:27.681Z,37
2023-02-24T09:58:46.462Z,46
2023-02-24T10:00:54.866Z,50
2023-02-24T10:01:58.925Z,44
2023-02-24T10:04:23.588Z,42
2023-02-24T10:06:30.612Z,38
2023-02-24T10:08:36.470Z,39
2023-02-24T10:09:39.921Z,42
2023-02-24T10:11:49.259Z,44
2023-02-24T10:13:56.394Z,33
2023-02-24T10:15:03.015Z,41
2023-02-24T10:16:09.604Z,45
2023-02-24T10:17:13.006Z,49
2023-02-24T10:19:19.295Z,49
2023-02-24T10:21:25.307Z,41
2023-02-24T10:22:28.834Z,38
2023-02-24T10:24:35.047Z,43
2023-02-24T10:27:16.649Z,38
2023-02-24T10:28:20.853Z,49
2023-02-24T10:29:24.395Z,45
2023-02-24T10:30:29.122Z,45
2023-02-24T10:32:36.793Z,35
2023-02-24T10:34:43.451Z,36
2023-02-24T10:36:49.999Z,42
2023-02-24T10:37:53.359Z,42
2023-02-24T10:39:59.475Z,35
2023-02-24T10:42:07.105Z,31
2023-02-24T10:44:13.051Z,31
2023-02-24T10:45:24.397Z,31
2023-02-24T10:46:46.157Z,29
2023-02-24T10:47:49.923Z,22
2023-02-24T10:49:56.997Z,23
2023-02-24T10:52:02.994Z,30
2023-02-24T10:53:06.457Z,42
2023-02-24T10:55:12.587Z,50
2023-02-24T10:57:19.521Z,44
2023-02-24T10:58:22.889Z,48
2023-02-24T11:00:30.440Z,42
2023-02-24T11:02:37.824Z,39
2023-02-24T11:03:41.898Z,45
2023-02-24T11:05:48.307Z,56
2023-02-24T11:07:55.549Z,66
2023-02-24T11:08:58.550Z,65
2023-02-24T11:10:01.885Z,46
2023-02-24T11:11:05.321Z,47
2023-02-24T11:13:12.592Z,49
2023-02-24T11:14:15.532Z,50
2023-02-24T11:15:18.940Z,53
2023-02-24T11:16:23.218Z,87
2023-02-24T11:18:31.079Z,56
2023-02-24T11:20:52.098Z,48
2023-02-24T11:21:55.750Z,49
2023-02-24T11:22:59.781Z,80
2023-02-24T11:24:04.004Z,62
2023-02-24T11:26:10.548Z,36
2023-02-24T11:27:13.643Z,36
2023-02-24T11:28:16.909Z,36
2023-02-24T11:29:20.515Z,36
2023-02-24T11:31:30.521Z,37
2023-02-24T11:32:35.511Z,36
2023-02-24T11:34:42.172Z,46
2023-02-24T11:36:48.110Z,62
2023-02-24T11:37:51.371Z,76
2023-02-24T11:39:58.476Z,51
2023-02-24T11:41:01.859Z,47
2023-02-24T11:43:09.376Z,39
2023-02-24T11:44:18.246Z,35
2023-02-24T11:45:21.550Z,39
2023-02-24T11:47:28.420Z,56
2023-02-24T11:48:32.210Z,64
2023-02-24T11:50:39.812Z,43
2023-02-24T11:52:46.650Z,42
2023-02-24T11:53:50.284Z,40
2023-02-24T11:55:55.568Z,39
2023-02-24T11:58:01.801Z,45
2023-02-24T11:59:05.204Z,46
2023-02-24T12:01:11.964Z,36
2023-02-24T12:03:19.121Z,35
2023-02-24T12:04:24.627Z,39
2023-02-24T12:06:32.782Z,43
2023-02-24T12:08:39.344Z,48
2023-02-24T12:09:42.775Z,53
2023-02-24T12:11:48.827Z,61
2023-02-24T12:12:52.486Z,47
2023-02-24T12:13:55.207Z,47
2023-02-24T12:14:58.244Z,49
2023-02-24T12:17:05.169Z,61
2023-02-24T12:18:07.983Z,61
2023-02-24T12:20:15.314Z,53
2023-02-24T12:22:21.692Z,47
2023-02-24T12:23:25.277Z,50
2023-02-24T12:25:32.083Z,47
2023-02-24T12:26:34.926Z,39
2023-02-24T12:27:38.073Z,38
2023-02-24T12:28:40.523Z,35
2023-02-24T12:30:47.693Z,32
2023-02-24T12:31:52.853Z,29
2023-02-24T12:34:00.698Z,36
2023-02-24T12:36:07.750Z,43
2023-02-24T12:37:11.185Z,49
2023-02-24T12:39:17.345Z,41
2023-02-24T12:40:21.073Z,37
2023-02-24T12:42:28.872Z,33
2023-02-24T12:44:34.754Z,32
2023-02-24T12:45:38.946Z,32
2023-02-24T12:47:45.890Z,35
2023-02-24T12:49:52.996Z,28
2023-02-24T12:50:57.222Z,31
2023-02-24T12:53:03.516Z,36
2023-02-24T12:55:10.646Z,35
2023-02-24T12:56:13.595Z,33
2023-02-24T12:58:20.345Z,24
2023-02-24T12:59:24.728Z,27
2023-02-24T13:00:28.094Z,34
2023-02-24T13:01:32.202Z,40
2023-02-24T13:02:35.866Z,43
2023-02-24T13:04:42.221Z,43
2023-02-24T13:06:49.143Z,27
2023-02-24T13:07:53.291Z,23
2023-02-24T13:10:00.596Z,23
2023-02-24T13:11:03.421Z,30
2023-02-24T13:13:10.182Z,39
2023-02-24T13:15:16.255Z,29
2023-02-24T13:16:19.801Z,29
2023-02-24T13:18:27.062Z,23
2023-02-24T13:20:33.736Z,22
2023-02-24T13:22:40.756Z,22
2023-02-24T13:23:44.783Z,25
2023-02-24T13:25:51.170Z,27
2023-02-24T13:27:57.511Z,24
2023-02-24T13:29:00.918Z,22
2023-02-24T13:31:08.611Z,24
2023-02-24T13:33:16.412Z,23
2023-02-24T13:35:23.286Z,19
2023-02-24T13:36:27.029Z,18
2023-02-24T13:38:33.191Z,17
2023-02-24T13:40:40.010Z,16
2023-02-24T13:41:43.407Z,14
2023-02-24T13:43:49.598Z,14
2023-02-24T13:44:52.948Z,14
2023-02-24T13:47:00.344Z,15
2023-02-24T13:49:07.778Z,21
2023-02-24T13:50:12.200Z,25
2023-02-24T13:52:19.463Z,25
2023-02-24T13:53:22.255Z,29
2023-02-24T13:55:30.033Z,29
2023-02-24T13:57:37.003Z,37
2023-02-24T13:58:40.351Z,39
2023-02-24T14:00:46.159Z,36
2023-02-24T14:02:54.508Z,32
2023-02-24T14:03:57.583Z,33
2023-02-24T14:06:04.242Z,36
2023-02-24T14:08:10.607Z,38
2023-02-24T14:09:14.369Z,31
2023-02-24T14:11:23.429Z,31
2023-02-24T14:13:31.142Z,29
2023-02-24T14:15:38.008Z,31
2023-02-24T14:16:41.999Z,31
2023-02-24T14:18:48.931Z,29
2023-02-24T14:20:55.387Z,26
2023-02-24T14:21:58.510Z,25
2023-02-24T14:23:02.038Z,24
2023-02-24T14:24:05.472Z,23
2023-02-24T14:26:12.506Z,31
2023-02-24T14:27:19.344Z,33
2023-02-24T14:29:25.266Z,29
2023-02-24T14:31:31.996Z,22
2023-02-24T14:33:39.157Z,22
2023-02-24T14:34:43.645Z,23
2023-02-24T14:36:52.238Z,19
2023-02-24T14:39:00.538Z,16
2023-02-24T14:41:07.546Z,19
2023-02-24T14:42:11.134Z,24
2023-02-24T14:44:18.035Z,26
2023-02-24T14:46:28.090Z,23
2023-02-24T14:48:34.878Z,23
2023-02-24T14:49:38.693Z,24
2023-02-24T14:51:47.694Z,21
2023-02-24T14:53:54.492Z,22
2023-02-24T14:54:58.258Z,22
2023-02-24T14:57:05.171Z,21
2023-02-24T14:58:09.106Z,16
2023-02-24T14:59:13.142Z,13
2023-02-24T15:00:16.392Z,14
2023-02-24T15:01:20.040Z,13
2023-02-24T15:02:23.045Z,12
2023-02-24T15:03:26.236Z,11
2023-02-24T15:04:29.356Z,10
2023-02-24T15:05:33.096Z,12
2023-02-24T15:06:36.087Z,14
2023-02-24T15:08:42.611Z,11
2023-02-24T15:09:46.272Z,11
2023-02-24T15:11:52.853Z,11
2023-02-24T15:14:00.107Z,12
2023-02-24T15:15:03.878Z,16
2023-02-24T15:17:10.584Z,15
2023-02-24T15:19:16.824Z,13
2023-02-24T15:20:19.283Z,13
2023-02-24T15:22:26.744Z,15
2023-02-24T15:24:33.318Z,16
2023-02-24T15:25:45.344Z,15
2023-02-24T15:26:48.644Z,17
2023-02-24T15:27:51.753Z,15
2023-02-24T15:29:59.368Z,13
2023-02-24T15:32:08.121Z,10
2023-02-24T15:33:12.158Z,10
2023-02-24T15:35:18.519Z,9
2023-02-24T15:37:28.237Z,13
2023-02-24T15:38:31.894Z,12
2023-02-24T15:39:35.085Z,18
2023-02-24T15:40:38.449Z,16
2023-02-24T15:42:47.795Z,13
2023-02-24T15:44:54.246Z,11
2023-02-24T15:45:58.023Z,11
2023-02-24T15:48:05.653Z,17
2023-02-24T15:50:11.280Z,17
2023-02-24T15:51:14.433Z,16
2023-02-24T15:53:20.564Z,22
2023-02-24T15:55:27.427Z,24
2023-02-24T15:57:34.630Z,19
2023-02-24T15:58:38.259Z,19
2023-02-24T16:00:45.773Z,21
2023-02-24T16:02:53.228Z,22
2023-02-24T16:05:00.716Z,16
2023-02-24T16:06:05.371Z,14
2023-02-24T16:08:11.562Z,11
2023-02-24T16:10:18.009Z,8
2023-02-24T16:11:21.300Z,7
2023-02-24T16:12:24.455Z,5
2023-02-24T16:13:28.400Z,7
2023-02-24T16:15:34.521Z,6
2023-02-24T16:16:38.142Z,5
2023-02-24T16:17:41.674Z,6
2023-02-24T16:18:45.691Z,5
